Time;durP1;ratioP1;P1;durP2;ratioP2;P2;SDS_P1;SDS_P2;PMS_P1;PMS_P2;Temp;Humidity;BMP_temperature;BMP_pressure;BME280_temperature;BME280_humidity;BME280_pressure;Samples;Min_cycle;Max_cycle;Signal;HPM_P1;HPM_P2
2023/10/29 00:00:03;;;;;;;4.45;3.38;;;;;;;12.65;61.47;93399.84;516434;28;868;-42
2023/10/29 00:00:18;;;;;;;4.90;3.50;;;;;;;12.65;61.37;93397.06;516249;28;985;-42
2023/10/29 00:00:34;;;;;;;5.35;3.63;;;;;;;12.65;61.21;93397.06;517248;28;1006;-42
2023/10/29 00:00:49;;;;;;;3.97;3.00;;;;;;;12.65;61.25;93402.59;516621;28;939;-42
2023/10/29 00:01:04;;;;;;;4.30;3.00;;;;;;;12.64;61.14;93398.38;515237;28;1537;-42
2023/10/29 00:01:20;;;;;;;5.83;3.30;;;;;;;12.65;60.92;93402.59;515836;28;841;-42
2023/10/29 00:01:35;;;;;;;5.77;3.47;;;;;;;12.63;60.87;93400.41;517307;28;1922;-42
2023/10/29 00:01:51;;;;;;;4.40;3.42;;;;;;;12.63;60.73;93399.66;517336;28;1032;-42
2023/10/29 00:02:06;;;;;;;4.50;3.40;;;;;;;12.62;60.68;93403.75;516394;28;1113;-42
2023/10/29 00:02:21;;;;;;;4.82;3.55;;;;;;;12.61;60.83;93400.25;515291;28;877;-42
2023/10/29 00:02:37;;;;;;;6.17;3.57;;;;;;;12.61;60.87;93402.25;517136;28;940;-41
2023/10/29 00:02:52;;;;;;;5.97;3.60;;;;;;;12.59;60.79;93402.09;516647;28;1450;-42
2023/10/29 00:03:07;;;;;;;5.70;3.65;;;;;;;12.59;60.69;93399.31;515526;28;879;-42
2023/10/29 00:03:23;;;;;;;6.47;3.67;;;;;;;12.44;60.70;93374.50;515389;28;798;-42
2023/10/29 00:03:39;;;;;;;5.93;3.80;;;;;;;12.58;61.04;93400.63;517033;28;1159;-41
2023/10/29 00:03:55;;;;;;;5.13;3.58;;;;;;;12.44;60.94;93382.81;516819;28;840;-41
2023/10/29 00:04:11;;;;;;;3.78;3.20;;;;;;;12.57;61.04;93399.16;515533;28;1337;-41
2023/10/29 00:04:32;;;;;;;4.10;3.27;;;;;;;12.56;61.00;93403.25;515743;28;786;-42
2023/10/29 00:04:47;;;;;;;5.25;3.42;;;;;;;12.55;61.20;93401.75;516611;28;1750;-42
2023/10/29 00:05:03;;;;;;;6.47;3.50;;;;;;;12.56;61.12;93400.47;515370;28;877;-42
2023/10/29 00:05:20;;;;;;;6.05;3.30;;;;;;;12.56;61.16;93403.25;515373;28;778;-41
2023/10/29 00:05:35;;;;;;;4.28;3.13;;;;;;;12.56;61.38;93403.25;516902;28;917;-42
2023/10/29 00:05:51;;;;;;;4.30;3.10;;;;;;;12.51;61.24;93399.38;515591;28;830;-41
2023/10/29 00:06:06;;;;;;;5.77;3.27;;;;;;;12.47;61.52;93401.06;517382;28;781;-42
2023/10/29 00:06:22;;;;;;;5.57;3.30;;;;;;;12.43;61.62;93406.97;517325;28;833;-43
2023/10/29 00:06:37;;;;;;;4.15;3.22;;;;;;;12.40;61.64;93407.38;517337;28;1672;-43
2023/10/29 00:06:52;;;;;;;4.73;3.43;;;;;;;12.39;61.52;93411.47;517373;28;793;-43
2023/10/29 00:07:08;;;;;;;5.37;3.53;;;;;;;12.37;61.59;93408.50;517281;28;1204;-43
2023/10/29 00:07:23;;;;;;;6.53;3.58;;;;;;;12.38;61.58;93405.19;515522;28;1548;-42
2023/10/29 00:07:39;;;;;;;6.57;3.57;;;;;;;12.39;61.80;93400.38;515360;28;900;-42
2023/10/29 00:07:54;;;;;;;5.70;3.50;;;;;;;12.36;61.41;93393.94;515312;28;829;-42
2023/10/29 00:08:10;;;;;;;5.63;3.43;;;;;;;12.40;61.52;93408.13;515297;28;821;-42
2023/10/29 00:08:25;;;;;;;6.07;3.38;;;;;;;12.40;61.40;93405.34;515542;28;809;-42
2023/10/29 00:08:40;;;;;;;5.33;3.43;;;;;;;12.41;61.56;93403.31;517305;28;822;-42
2023/10/29 00:08:56;;;;;;;4.47;3.73;;;;;;;12.41;61.67;93403.31;517255;28;1168;-42
2023/10/29 00:09:11;;;;;;;6.47;4.00;;;;;;;12.41;61.68;93406.09;517304;28;842;-42
2023/10/29 00:09:26;;;;;;;6.37;3.87;;;;;;;12.42;61.93;93404.78;517498;28;1034;-42
2023/10/29 00:09:42;;;;;;;5.15;3.78;;;;;;;12.43;61.86;93406.25;517678;28;888;-42
2023/10/29 00:09:57;;;;;;;4.80;3.80;;;;;;;12.42;61.91;93404.78;517806;28;860;-42
2023/10/29 00:10:13;;;;;;;4.37;3.60;;;;;;;12.40;62.04;93407.38;517697;28;821;-42
2023/10/29 00:10:28;;;;;;;5.30;3.75;;;;;;;12.36;61.88;93405.00;516294;28;1093;-42
2023/10/29 00:10:44;;;;;;;7.37;3.77;;;;;;;12.37;62.18;93408.50;517696;28;848;-42
2023/10/29 00:10:59;;;;;;;6.40;3.50;;;;;;;12.36;62.21;93412.56;515698;28;1764;-42
2023/10/29 00:11:15;;;;;;;5.33;3.50;;;;;;;12.35;62.38;93406.28;517489;28;893;-42
2023/10/29 00:11:30;;;;;;;5.78;3.67;;;;;;;12.36;62.51;93402.25;517657;28;904;-42
2023/10/29 00:11:46;;;;;;;6.33;3.90;;;;;;;12.37;62.38;93414.03;517704;28;1204;-42
2023/10/29 00:12:02;;;;;;;5.40;3.35;;;;;;;12.37;62.38;93408.50;517707;28;912;-43
2023/10/29 00:12:17;;;;;;;3.83;2.90;;;;;;;12.37;62.34;93406.47;517729;28;909;-42
2023/10/29 00:12:33;;;;;;;3.90;2.93;;;;;;;12.37;62.14;93409.22;517778;28;813;-43
2023/10/29 00:12:48;;;;;;;3.42;2.78;;;;;;;12.39;61.93;93414.22;517797;28;805;-43
2023/10/29 00:13:04;;;;;;;3.90;3.00;;;;;;;12.39;61.88;93403.88;517700;28;996;-42
2023/10/29 00:13:19;;;;;;;4.85;2.95;;;;;;;12.40;62.00;93410.16;517635;28;1109;-43
2023/10/29 00:13:35;;;;;;;5.27;2.90;;;;;;;12.34;61.96;93401.31;516160;28;1626;-42
2023/10/29 00:13:50;;;;;;;4.70;2.78;;;;;;;12.40;61.82;93407.38;515642;28;904;-42
2023/10/29 00:14:06;;;;;;;4.27;2.53;;;;;;;12.40;61.65;93408.13;515692;28;857;-42
2023/10/29 00:14:21;;;;;;;4.13;2.60;;;;;;;12.42;61.42;93410.31;515630;28;833;-42
2023/10/29 00:14:36;;;;;;;5.10;3.17;;;;;;;12.42;61.54;93413.09;517430;28;1366;-42
2023/10/29 00:14:52;;;;;;;5.97;3.90;;;;;;;12.41;61.52;93414.41;517639;28;1149;-43
2023/10/29 00:15:08;;;;;;;5.72;3.97;;;;;;;12.35;61.36;93411.09;517694;28;1584;-43
2023/10/29 00:15:23;;;;;;;6.40;4.23;;;;;;;12.27;61.24;93416.66;517774;28;782;-42
2023/10/29 00:15:38;;;;;;;5.78;4.13;;;;;;;12.24;61.73;93414.28;516627;28;918;-43
2023/10/29 00:15:54;;;;;;;5.53;3.90;;;;;;;12.22;61.70;93408.56;515764;28;864;-43
2023/10/29 00:16:11;;;;;;;5.97;4.13;;;;;;;12.18;61.95;93418.00;515955;28;1282;-43
2023/10/29 00:16:26;;;;;;;5.20;3.92;;;;;;;12.12;61.90;93405.66;517035;28;1396;-42
2023/10/29 00:16:41;;;;;;;5.00;3.85;;;;;;;12.14;61.65;93414.88;517426;28;858;-42
2023/10/29 00:16:57;;;;;;;5.17;3.90;;;;;;;12.15;61.84;93415.59;517765;28;832;-42
2023/10/29 00:17:12;;;;;;;4.83;3.80;;;;;;;12.16;61.68;93411.53;517623;28;1378;-42
2023/10/29 00:17:27;;;;;;;5.00;3.70;;;;;;;12.19;61.50;93413.22;517665;28;928;-42
2023/10/29 00:17:43;;;;;;;5.37;3.57;;;;;;;12.19;61.37;93408.38;517368;28;1697;-42
2023/10/29 00:17:58;;;;;;;6.20;3.80;;;;;;;12.22;61.60;93408.56;515770;28;869;-42
2023/10/29 00:18:14;;;;;;;5.93;3.92;;;;;;;12.24;61.27;93417.03;515688;28;948;-42
2023/10/29 00:18:30;;;;;;;6.10;3.80;;;;;;;12.26;61.34;93412.41;516511;28;845;-42
2023/10/29 00:18:45;;;;;;;7.17;3.70;;;;;;;12.25;61.39;93408.19;517791;28;852;-42
2023/10/29 00:19:00;;;;;;;7.10;3.80;;;;;;;12.27;61.22;93411.13;517691;28;864;-42
2023/10/29 00:19:16;;;;;;;5.82;3.83;;;;;;;12.29;61.02;93405.78;517683;28;1081;-42
2023/10/29 00:19:32;;;;;;;5.87;3.80;;;;;;;12.29;60.89;93405.78;516863;28;1625;-42
2023/10/29 00:19:50;;;;;;;6.45;3.90;;;;;;;12.30;60.98;93418.31;515771;28;837;-42
2023/10/29 00:20:06;;;;;;;5.53;3.65;;;;;;;12.27;60.80;93407.63;515719;28;1085;-42
2023/10/29 00:20:21;;;;;;;6.57;4.00;;;;;;;12.27;61.23;93413.16;515716;28;837;-42
2023/10/29 00:20:36;;;;;;;7.20;4.20;;;;;;;12.28;61.08;93412.59;516012;28;976;-42
2023/10/29 00:20:52;;;;;;;5.05;3.67;;;;;;;12.28;61.11;93412.59;515576;28;1397;-42
2023/10/29 00:21:07;;;;;;;4.70;3.57;;;;;;;12.28;61.31;93418.13;516526;28;853;-42
2023/10/29 00:21:23;;;;;;;6.57;4.53;;;;;;;12.26;61.41;93414.47;517640;28;1107;-42
2023/10/29 00:21:38;;;;;;;7.37;4.87;;;;;;;12.12;61.27;93392.56;515830;28;1907;-42
2023/10/29 00:21:54;;;;;;;7.10;4.47;;;;;;;12.23;61.57;93399.72;515848;28;975;-42
2023/10/29 00:22:09;;;;;;;6.47;4.30;;;;;;;12.24;61.60;93409.47;515831;28;813;-42
2023/10/29 00:22:28;;;;;;;5.50;4.30;;;;;;;12.25;61.32;93413.00;517539;28;1204;-42
2023/10/29 00:22:43;;;;;;;5.40;3.95;;;;;;;12.25;61.56;93413.00;515888;28;880;-42
2023/10/29 00:22:58;;;;;;;6.23;4.10;;;;;;;12.17;61.21;93407.50;516471;28;818;-42
2023/10/29 00:23:14;;;;;;;5.97;4.32;;;;;;;12.12;61.26;93411.94;517840;28;876;-42
2023/10/29 00:23:29;;;;;;;6.20;4.10;;;;;;;12.10;61.41;93409.00;517558;28;806;-42
2023/10/29 00:23:45;;;;;;;8.77;4.30;;;;;;;12.13;61.30;93409.88;516168;28;1030;-42
2023/10/29 00:24:00;;;;;;;8.45;4.30;;;;;;;12.09;61.20;93407.50;517461;28;962;-42
2023/10/29 00:24:16;;;;;;;5.87;4.30;;;;;;;12.15;61.30;93415.59;515823;28;1617;-42
2023/10/29 00:24:31;;;;;;;5.13;4.30;;;;;;;12.14;61.40;93417.66;516584;28;880;-42
2023/10/29 00:24:46;;;;;;;4.90;3.97;;;;;;;12.16;61.42;93417.81;515857;28;1045;-42
2023/10/29 00:25:02;;;;;;;5.87;4.23;;;;;;;12.18;61.09;93408.97;515751;28;1176;-42
2023/10/29 00:25:18;;;;;;;5.53;4.07;;;;;;;12.21;61.18;93418.91;516579;28;1125;-42
2023/10/29 00:25:33;;;;;;;5.75;3.90;;;;;;;12.21;61.13;93415.41;517742;28;1161;-42
2023/10/29 00:25:48;;;;;;;6.87;4.17;;;;;;;12.21;61.40;93410.63;517844;28;929;-42
2023/10/29 00:26:04;;;;;;;5.97;4.00;;;;;;;12.23;61.29;93413.56;517792;28;1243;-42
2023/10/29 00:26:20;;;;;;;5.28;3.95;;;;;;;12.24;61.33;93412.25;517886;28;839;-42
2023/10/29 00:26:35;;;;;;;5.85;4.15;;;;;;;12.24;61.25;93412.25;516518;28;898;-42
2023/10/29 00:26:51;;;;;;;6.20;4.10;;;;;;;12.25;61.06;93413.72;515741;28;1117;-42
2023/10/29 00:27:06;;;;;;;5.10;3.67;;;;;;;12.26;60.92;93411.72;515864;28;931;-42
2023/10/29 00:27:21;;;;;;;3.97;3.50;;;;;;;12.25;60.66;93413.00;515801;28;884;-42
2023/10/29 00:27:37;;;;;;;4.60;3.53;;;;;;;12.27;60.71;93413.16;517590;28;1703;-42
2023/10/29 00:27:52;;;;;;;5.82;3.90;;;;;;;12.25;60.94;93410.22;517892;28;877;-42
2023/10/29 00:28:08;;;;;;;6.07;4.43;;;;;;;12.23;60.88;93410.03;516521;28;1086;-42
2023/10/29 00:28:25;;;;;;;5.90;4.63;;;;;;;12.23;61.04;93410.03;515897;28;1165;-42
2023/10/29 00:28:41;;;;;;;8.75;4.30;;;;;;;12.22;61.05;93414.09;517894;28;924;-42
2023/10/29 00:28:56;;;;;;;8.35;4.30;;;;;;;12.22;60.83;93414.84;517867;28;866;-42
2023/10/29 00:29:11;;;;;;;5.73;4.57;;;;;;;12.22;61.02;93411.31;517688;28;1119;-43
2023/10/29 00:29:27;;;;;;;6.70;4.57;;;;;;;12.19;60.99;93405.63;517711;28;848;-43
2023/10/29 00:29:43;;;;;;;5.63;3.90;;;;;;;12.22;60.97;93414.09;515813;28;1015;-42
2023/10/29 00:29:58;;;;;;;4.43;3.47;;;;;;;12.23;60.98;93412.81;515853;28;1139;-42
2023/10/29 00:30:14;;;;;;;5.53;3.80;;;;;;;12.23;61.03;93407.28;515783;28;892;-42
2023/10/29 00:30:29;;;;;;;6.63;3.97;;;;;;;12.22;60.55;93403.75;516537;28;931;-42
2023/10/29 00:30:44;;;;;;;5.97;3.90;;;;;;;12.24;60.64;93419.81;517840;28;845;-42
2023/10/29 00:31:00;;;;;;;5.47;3.93;;;;;;;12.22;60.96;93409.31;516053;28;1772;-42
2023/10/29 00:31:15;;;;;;;6.37;3.90;;;;;;;12.24;60.77;93411.50;516262;28;1133;-42
2023/10/29 00:31:31;;;;;;;5.85;3.75;;;;;;;12.22;60.88;93414.09;517687;28;913;-43
2023/10/29 00:31:46;;;;;;;5.60;4.00;;;;;;;12.21;61.11;93409.88;517713;28;871;-42
2023/10/29 00:32:02;;;;;;;5.57;4.18;;;;;;;12.21;60.95;93412.63;516198;28;892;-42
2023/10/29 00:32:18;;;;;;;5.83;3.97;;;;;;;12.20;60.94;93411.91;515715;28;1100;-42
2023/10/29 00:32:34;;;;;;;5.82;4.13;;;;;;;12.19;61.10;93411.16;516997;28;1071;-42
2023/10/29 00:32:49;;;;;;;4.85;3.92;;;;;;;12.21;60.99;93415.41;517690;28;1086;-42
2023/10/29 00:33:06;;;;;;;5.47;3.73;;;;;;;12.16;61.05;93406.00;516311;28;940;-42
2023/10/29 00:33:21;;;;;;;6.20;3.83;;;;;;;12.19;60.97;93416.69;515597;28;1012;-42
2023/10/29 00:33:37;;;;;;;5.93;3.80;;;;;;;12.18;60.93;93415.22;516378;28;1596;-42
2023/10/29 00:33:53;;;;;;;5.40;3.70;;;;;;;12.19;60.77;93410.44;515770;28;849;-42
2023/10/29 00:34:08;;;;;;;5.72;3.72;;;;;;;12.18;60.82;93414.50;517033;28;1671;-42
2023/10/29 00:34:23;;;;;;;5.30;3.63;;;;;;;12.14;60.86;93405.84;516273;28;790;-42
2023/10/29 00:34:39;;;;;;;4.32;3.58;;;;;;;12.16;60.91;93415.06;517834;28;816;-42
2023/10/29 00:34:54;;;;;;;4.97;3.90;;;;;;;12.15;60.98;93410.81;517823;28;981;-42
2023/10/29 00:35:09;;;;;;;5.30;3.80;;;;;;;12.09;60.91;93401.25;517865;28;790;-42
2023/10/29 00:35:25;;;;;;;4.80;3.63;;;;;;;12.11;60.81;93412.47;517816;28;856;-42
2023/10/29 00:35:40;;;;;;;5.43;3.90;;;;;;;12.12;61.00;93413.97;517765;28;851;-42
2023/10/29 00:35:56;;;;;;;6.15;4.28;;;;;;;12.11;60.95;93409.72;517018;28;822;-42
2023/10/29 00:36:11;;;;;;;5.10;3.87;;;;;;;12.10;60.82;93411.03;517723;28;892;-42
2023/10/29 00:36:26;;;;;;;3.53;3.10;;;;;;;12.10;61.12;93411.03;517449;28;833;-42
2023/10/29 00:36:42;;;;;;;3.97;3.57;;;;;;;12.08;61.04;93417.09;517838;28;817;-42
2023/10/29 00:36:57;;;;;;;5.20;4.03;;;;;;;12.07;60.93;93421.19;517099;28;773;-42
2023/10/29 00:37:13;;;;;;;5.78;3.80;;;;;;;12.07;60.86;93412.13;515845;28;1015;-42
2023/10/29 00:37:28;;;;;;;5.70;3.60;;;;;;;12.07;60.74;93420.44;517761;28;884;-42
2023/10/29 00:37:44;;;;;;;4.97;3.53;;;;;;;12.06;60.87;93416.22;517846;28;777;-42
2023/10/29 00:37:59;;;;;;;4.03;3.53;;;;;;;12.07;60.78;93417.66;517836;28;874;-42
2023/10/29 00:38:15;;;;;;;4.20;3.63;;;;;;;12.07;61.00;93420.44;517849;28;1014;-42
2023/10/29 00:38:30;;;;;;;4.80;3.90;;;;;;;12.07;61.15;93420.44;517378;28;990;-42
2023/10/29 00:38:46;;;;;;;5.40;4.00;;;;;;;12.06;61.23;93424.50;516082;28;1031;-42
2023/10/29 00:39:01;;;;;;;6.10;3.92;;;;;;;12.04;61.19;93410.50;517361;28;1441;-42
2023/10/29 00:39:17;;;;;;;5.97;3.90;;;;;;;12.04;60.98;93422.28;516363;28;1076;-43
2023/10/29 00:39:33;;;;;;;4.82;3.80;;;;;;;12.04;61.03;93422.28;516848;28;1572;-42
2023/10/29 00:39:48;;;;;;;4.53;3.55;;;;;;;12.04;61.12;93413.97;517747;28;813;-43
2023/10/29 00:40:04;;;;;;;5.30;3.80;;;;;;;12.01;61.37;93417.16;517694;28;1017;-42
2023/10/29 00:40:19;;;;;;;5.75;4.10;;;;;;;11.97;61.19;93414.78;517529;28;1086;-42
2023/10/29 00:40:38;;;;;;;5.53;4.20;;;;;;;11.92;61.35;93412.19;517656;28;1093;-42
2023/10/29 00:40:54;;;;;;;5.20;4.28;;;;;;;11.94;61.50;93418.63;517573;28;2107;-42
2023/10/29 00:41:09;;;;;;;5.03;3.97;;;;;;;11.93;61.30;93414.38;517874;28;789;-42
2023/10/29 00:41:26;;;;;;;5.67;3.90;;;;;;;11.93;61.63;93408.13;517793;28;857;-42
2023/10/29 00:41:42;;;;;;;5.82;4.03;;;;;;;11.88;61.41;93412.59;515617;28;1922;-43
2023/10/29 00:41:57;;;;;;;5.57;4.00;;;;;;;11.91;61.70;93419.75;516811;28;1650;-43
2023/10/29 00:42:12;;;;;;;5.63;4.00;;;;;;;11.91;61.24;93416.25;516768;28;830;-43
2023/10/29 00:42:28;;;;;;;5.43;4.03;;;;;;;11.92;61.59;93412.19;516353;28;949;-43
2023/10/29 00:42:43;;;;;;;5.95;4.00;;;;;;;11.92;61.42;93417.72;517800;28;884;-43
2023/10/29 00:42:59;;;;;;;7.13;3.93;;;;;;;11.91;61.60;93416.97;517851;28;861;-43
2023/10/29 00:43:14;;;;;;;5.57;3.85;;;;;;;11.91;61.61;93414.22;517699;28;1133;-43
2023/10/29 00:43:55;;;;;;;6.30;3.47;;;;;;;11.89;61.81;93416.81;517846;28;702;-43
2023/10/29 00:44:10;;;;;;;4.90;3.22;;;;;;;11.86;61.91;93409.63;517801;28;1115;-43
2023/10/29 00:44:25;;;;;;;4.30;3.23;;;;;;;11.87;61.77;93419.41;517816;28;856;-43
2023/10/29 00:44:41;;;;;;;5.53;3.40;;;;;;;11.88;61.76;93420.88;516620;28;926;-43
2023/10/29 00:44:56;;;;;;;6.70;3.60;;;;;;;11.87;61.83;93422.16;517595;28;1188;-43
2023/10/29 00:45:12;;;;;;;6.50;3.70;;;;;;;11.87;61.82;93416.63;516584;28;868;-42
2023/10/29 00:45:27;;;;;;;5.17;3.50;;;;;;;11.86;61.99;93420.69;516242;28;1195;-42
2023/10/29 00:45:43;;;;;;;4.78;3.55;;;;;;;11.87;61.87;93422.16;516705;28;817;-42
2023/10/29 00:45:58;;;;;;;4.95;3.33;;;;;;;11.88;61.87;93420.88;517655;28;897;-43
2023/10/29 00:46:14;;;;;;;5.27;3.37;;;;;;;11.69;61.76;93387.38;517692;28;1150;-42
2023/10/29 00:46:30;;;;;;;6.03;3.70;;;;;;;11.89;62.04;93416.09;519635;28;928;-42
2023/10/29 00:46:45;;;;;;;6.45;3.67;;;;;;;11.91;61.77;93413.50;517649;28;869;-42
2023/10/29 00:47:01;;;;;;;5.90;3.73;;;;;;;11.91;61.66;93422.50;517727;28;817;-42
2023/10/29 00:47:16;;;;;;;4.87;3.70;;;;;;;11.91;61.58;93414.22;517576;28;1092;-42
2023/10/29 00:47:32;;;;;;;5.90;3.70;;;;;;;11.88;61.90;93423.66;517565;28;934;-43
2023/10/29 00:47:47;;;;;;;6.72;3.75;;;;;;;11.88;61.98;93420.88;517570;28;1533;-42
2023/10/29 00:48:03;;;;;;;6.33;3.67;;;;;;;11.89;61.97;93418.84;517582;28;1127;-43
2023/10/29 00:48:18;;;;;;;6.60;3.90;;;;;;;11.90;61.92;93417.53;517351;28;1225;-42
2023/10/29 00:48:34;;;;;;;4.97;3.70;;;;;;;11.90;61.96;93417.53;516486;28;1600;-42
2023/10/29 00:48:50;;;;;;;5.40;3.55;;;;;;;11.90;61.93;93418.28;517582;28;938;-42
2023/10/29 00:49:06;;;;;;;5.88;3.95;;;;;;;11.91;61.86;93413.50;515566;28;1265;-43
2023/10/29 00:49:21;;;;;;;5.30;4.23;;;;;;;11.91;61.84;93419.75;515555;28;1173;-42
2023/10/29 00:49:37;;;;;;;6.15;4.05;;;;;;;11.92;61.87;93414.94;515211;28;885;-43
2023/10/29 00:49:53;;;;;;;6.23;4.10;;;;;;;11.93;61.38;93421.97;515621;28;837;-43
2023/10/29 00:50:08;;;;;;;6.00;4.40;;;;;;;11.92;61.64;93415.69;514017;28;1367;-43
2023/10/29 00:50:24;;;;;;;5.78;4.05;;;;;;;11.93;61.71;93416.44;513577;28;1010;-42
2023/10/29 00:50:40;;;;;;;5.55;3.90;;;;;;;11.94;61.36;93417.91;513680;28;830;-42
2023/10/29 00:50:56;;;;;;;5.67;3.90;;;;;;;11.93;61.49;93419.91;514151;28;1210;-42
2023/10/29 00:51:11;;;;;;;6.22;4.10;;;;;;;11.94;61.66;93420.66;515671;28;862;-42
2023/10/29 00:51:27;;;;;;;6.72;4.38;;;;;;;11.93;61.76;93419.22;513628;28;842;-43
2023/10/29 00:51:43;;;;;;;7.67;4.53;;;;;;;11.93;61.64;93421.97;513610;28;1228;-42
2023/10/29 00:51:59;;;;;;;6.25;4.45;;;;;;;11.92;61.61;93415.69;513533;28;869;-43
2023/10/29 00:52:14;;;;;;;4.40;3.97;;;;;;;11.92;61.38;93418.47;513494;28;994;-43
2023/10/29 00:52:31;;;;;;;4.25;3.85;;;;;;;11.92;61.55;93420.50;511580;29;869;-43
2023/10/29 00:52:47;;;;;;;4.35;3.88;;;;;;;11.93;61.34;93421.97;512452;28;971;-42
2023/10/29 00:53:02;;;;;;;6.55;4.53;;;;;;;11.92;61.40;93423.25;514429;28;861;-42
2023/10/29 00:53:18;;;;;;;7.55;4.68;;;;;;;11.93;61.46;93421.97;516407;28;817;-42
2023/10/29 00:53:33;;;;;;;5.63;4.20;;;;;;;11.93;61.29;93424.75;515525;28;952;-43
2023/10/29 00:53:49;;;;;;;5.33;3.87;;;;;;;11.92;61.39;93421.22;514848;28;1028;-43
2023/10/29 00:54:05;;;;;;;6.32;3.90;;;;;;;11.92;61.56;93417.72;513681;28;802;-42
2023/10/29 00:54:21;;;;;;;5.85;4.03;;;;;;;11.88;61.32;93418.13;514343;28;892;-43
2023/10/29 00:54:36;;;;;;;5.13;3.80;;;;;;;11.92;61.27;93418.47;516823;28;801;-42
2023/10/29 00:54:51;;;;;;;5.67;3.97;;;;;;;11.92;61.43;93421.22;515996;28;878;-42
2023/10/29 00:55:08;;;;;;;5.38;3.78;;;;;;;11.92;61.43;93424.00;515695;28;845;-42
2023/10/29 00:55:24;;;;;;;5.60;4.15;;;;;;;11.85;61.10;93410.91;516918;28;1166;-42
2023/10/29 00:55:40;;;;;;;6.37;4.50;;;;;;;11.89;61.15;93422.34;517073;28;857;-42
2023/10/29 00:55:57;;;;;;;7.22;4.10;;;;;;;11.90;61.03;93421.06;515662;28;877;-42
2023/10/29 00:56:14;;;;;;;7.05;3.92;;;;;;;11.89;61.17;93422.34;515670;28;1081;-42
2023/10/29 00:56:30;;;;;;;5.90;3.88;;;;;;;11.90;61.14;93417.53;514402;28;853;-42
2023/10/29 00:56:46;;;;;;;5.20;3.72;;;;;;;11.88;60.99;93420.88;515519;28;1142;-42
2023/10/29 00:57:02;;;;;;;5.67;3.90;;;;;;;11.86;60.87;93417.94;515513;28;1089;-42
2023/10/29 00:57:17;;;;;;;5.85;4.18;;;;;;;11.85;60.94;93412.94;515741;28;930;-42
2023/10/29 00:57:33;;;;;;;5.37;4.20;;;;;;;11.86;60.56;93419.97;514306;28;856;-42
2023/10/29 00:57:48;;;;;;;5.20;3.80;;;;;;;11.84;60.77;93419.78;515685;28;885;-42
2023/10/29 00:58:04;;;;;;;5.53;3.97;;;;;;;11.83;60.83;93418.28;515404;28;1723;-42
2023/10/29 00:58:20;;;;;;;5.32;4.30;;;;;;;11.81;60.58;93413.34;515577;28;1161;-42
2023/10/29 00:58:36;;;;;;;8.70;4.35;;;;;;;11.81;60.67;93412.59;515039;28;914;-42
2023/10/29 00:58:52;;;;;;;10.07;4.75;;;;;;;11.78;60.75;93414.44;513653;28;938;-42
2023/10/29 00:59:07;;;;;;;7.40;4.55;;;;;;;11.77;60.83;93421.28;513723;28;871;-42
2023/10/29 00:59:23;;;;;;;7.10;4.20;;;;;;;11.61;60.67;93396.97;514277;28;847;-42
2023/10/29 00:59:39;;;;;;;6.35;3.75;;;;;;;11.75;61.07;93412.81;517328;28;1650;-42
2023/10/29 00:59:54;;;;;;;6.20;3.85;;;;;;;11.75;61.07;93415.56;517606;28;1165;-43
2023/10/29 01:00:10;;;;;;;6.13;4.50;;;;;;;11.69;61.17;93406.00;515593;28;995;-42
2023/10/29 01:00:26;;;;;;;6.55;4.43;;;;;;;11.74;61.24;93416.84;513874;28;1069;-42
2023/10/29 01:00:41;;;;;;;5.77;4.03;;;;;;;11.74;61.29;93413.34;512249;28;791;-42
2023/10/29 01:00:56;;;;;;;5.30;4.05;;;;;;;11.75;61.35;93423.13;514130;28;1098;-43
2023/10/29 01:01:12;;;;;;;5.60;4.23;;;;;;;11.73;61.29;93414.66;515645;28;1002;-42
2023/10/29 01:01:27;;;;;;;6.72;4.07;;;;;;;11.73;61.35;93411.88;516705;28;1162;-42
2023/10/29 01:01:43;;;;;;;7.63;4.17;;;;;;;11.69;61.22;93409.50;514921;28;1918;-42
2023/10/29 01:01:58;;;;;;;7.00;4.80;;;;;;;11.73;61.08;93420.91;514853;28;1653;-42
2023/10/29 01:02:13;;;;;;;6.00;4.53;;;;;;;11.71;61.24;93415.22;517686;28;830;-42
2023/10/29 01:02:31;;;;;;;6.70;4.13;;;;;;;11.70;61.23;93421.28;517742;28;941;-42
2023/10/29 01:02:46;;;;;;;6.70;4.05;;;;;;;11.63;61.22;93406.16;517741;28;1240;-42
2023/10/29 01:03:02;;;;;;;6.00;3.80;;;;;;;11.65;61.47;93409.09;517826;28;857;-42
2023/10/29 01:03:18;;;;;;;5.05;3.70;;;;;;;11.65;61.24;93413.91;517799;28;929;-43
2023/10/29 01:03:33;;;;;;;5.63;3.92;;;;;;;11.61;61.20;93414.25;517636;28;861;-42
2023/10/29 01:03:49;;;;;;;6.17;3.90;;;;;;;11.57;61.53;93419.44;517844;28;920;-43
2023/10/29 01:04:04;;;;;;;5.67;3.80;;;;;;;11.51;61.70;93416.13;517334;28;852;-42
2023/10/29 01:04:20;;;;;;;5.88;3.92;;;;;;;11.47;61.65;93420.56;516570;28;1188;-43
2023/10/29 01:04:36;;;;;;;5.50;3.90;;;;;;;11.41;62.04;93413.19;517784;28;898;-43
2023/10/29 01:04:51;;;;;;;4.85;3.63;;;;;;;11.37;62.10;93421.13;517843;28;821;-43
2023/10/29 01:05:06;;;;;;;6.18;4.10;;;;;;;11.32;61.90;93421.31;517807;28;1005;-43
2023/10/29 01:05:22;;;;;;;8.53;4.90;;;;;;;11.20;61.94;93407.13;517579;28;764;-43
2023/10/29 01:05:38;;;;;;;7.97;4.90;;;;;;;11.30;62.17;93421.16;516051;28;935;-43
2023/10/29 01:05:54;;;;;;;7.25;4.85;;;;;;;11.27;62.05;93422.25;515525;28;1670;-43
2023/10/29 01:06:10;;;;;;;6.67;4.77;;;;;;;11.31;62.01;93419.84;515663;28;811;-42
2023/10/29 01:06:26;;;;;;;5.35;4.15;;;;;;;11.33;61.90;93420.03;515633;28;1711;-42
2023/10/29 01:06:44;;;;;;;5.40;3.80;;;;;;;11.35;61.67;93418.19;516614;28;811;-42
2023/10/29 01:06:59;;;;;;;5.45;3.63;;;;;;;11.36;61.46;93419.66;516579;28;911;-42
2023/10/29 01:07:16;;;;;;;5.03;3.90;;;;;;;11.39;61.65;93426.13;517591;28;1207;-43
2023/10/29 01:07:32;;;;;;;6.10;4.25;;;;;;;11.40;61.22;93425.56;516872;28;901;-43
2023/10/29 01:07:48;;;;;;;6.55;3.97;;;;;;;11.41;61.07;93418.72;515812;28;868;-43
2023/10/29 01:08:05;;;;;;;5.60;3.77;;;;;;;11.42;60.93;93425.00;515795;28;861;-43
2023/10/29 01:08:21;;;;;;;5.47;3.80;;;;;;;11.41;60.68;93427.00;515599;28;895;-43
2023/10/29 01:08:37;;;;;;;6.80;4.30;;;;;;;11.41;60.39;93415.97;517344;28;1016;-43
2023/10/29 01:08:54;;;;;;;5.80;4.18;;;;;;;11.42;60.00;93428.50;517588;28;1220;-42
2023/10/29 01:09:09;;;;;;;5.50;3.70;;;;;;;11.41;60.08;93412.47;517708;28;873;-43
2023/10/29 01:09:25;;;;;;;6.70;3.63;;;;;;;11.40;60.01;93417.25;517636;28;877;-43
2023/10/29 01:09:42;;;;;;;6.57;3.50;;;;;;;11.41;59.90;93427.00;516930;28;1015;-43
2023/10/29 01:10:00;;;;;;;5.88;3.58;;;;;;;11.41;60.19;93423.53;517612;28;1088;-43
2023/10/29 01:10:15;;;;;;;5.72;3.60;;;;;;;11.40;60.04;93417.25;516923;28;1133;-43
2023/10/29 01:10:32;;;;;;;4.50;3.05;;;;;;;11.41;60.51;93420.78;517523;28;1110;-43
2023/10/29 01:10:47;;;;;;;3.30;3.00;;;;;;;11.41;60.27;93421.50;516175;28;876;-43
2023/10/29 01:11:05;;;;;;;3.50;2.95;;;;;;;11.39;60.57;93423.34;515642;28;790;-43
2023/10/29 01:11:21;;;;;;;3.95;2.90;;;;;;;11.32;60.65;93426.84;515660;28;864;-43
2023/10/29 01:11:36;;;;;;;4.80;2.90;;;;;;;11.28;60.53;93423.72;517329;28;888;-43
2023/10/29 01:11:52;;;;;;;4.33;2.90;;;;;;;11.25;60.85;93422.81;517542;28;1094;-43
2023/10/29 01:12:16;;;;;;;3.40;3.10;;;;;;;11.25;60.74;93424.81;517721;28;884;-43
2023/10/29 01:12:32;;;;;;;4.40;3.15;;;;;;;11.24;61.02;93426.13;516624;28;842;-43
2023/10/29 01:12:47;;;;;;;4.03;3.00;;;;;;;11.25;60.86;93422.06;515842;28;853;-43
2023/10/29 01:13:03;;;;;;;3.70;2.65;;;;;;;11.25;60.69;93422.06;515524;28;1433;-43
2023/10/29 01:13:18;;;;;;;3.47;2.57;;;;;;;11.26;60.55;93424.25;518873;28;1217;-43
2023/10/29 01:13:34;;;;;;;3.47;2.83;;;;;;;11.22;60.81;93412.84;521817;28;868;-43
2023/10/29 01:13:50;;;;;;;3.80;3.07;;;;;;;11.26;60.46;93423.56;519793;28;777;-43
2023/10/29 01:14:05;;;;;;;4.80;3.22;;;;;;;11.28;60.70;93427.22;519740;28;876;-43
2023/10/29 01:14:20;;;;;;;5.23;3.23;;;;;;;11.23;60.72;93422.63;519523;28;830;-42
2023/10/29 01:14:36;;;;;;;5.93;3.27;;;;;;;11.23;60.61;93430.19;518917;28;955;-43
2023/10/29 01:14:51;;;;;;;4.20;2.80;;;;;;;11.21;61.02;93424.47;518419;28;1028;-43
2023/10/29 01:15:07;;;;;;;3.23;2.60;;;;;;;11.19;61.01;93418.75;516725;28;1820;-43
2023/10/29 01:15:22;;;;;;;4.45;2.83;;;;;;;11.19;60.95;93421.53;515781;28;809;-43
2023/10/29 01:15:37;;;;;;;3.60;2.70;;;;;;;11.16;60.98;93419.84;517650;28;952;-43
2023/10/29 01:15:53;;;;;;;5.40;2.75;;;;;;;11.21;60.88;93427.22;517845;28;786;-43
2023/10/29 01:16:08;;;;;;;6.27;3.20;;;;;;;11.18;60.94;93418.00;517865;28;1528;-43
2023/10/29 01:16:24;;;;;;;4.83;3.50;;;;;;;11.24;61.02;93431.66;516526;28;905;-43
2023/10/29 01:16:40;;;;;;;4.53;3.17;;;;;;;11.26;61.04;93423.56;517872;28;794;-42